sensor_id;sensor_type;location;lat;lon;timestamp;temperature;humidity
6964;DHT22;3522;50.856;7.278;2022-07-29T00:01:13;19.60;94.50
6964;DHT22;3522;50.856;7.278;2022-07-29T00:03:40;19.60;94.50
6964;DHT22;3522;50.856;7.278;2022-07-29T00:06:07;19.60;94.30
6964;DHT22;3522;50.856;7.278;2022-07-29T00:08:34;19.60;94.40
6964;DHT22;3522;50.856;7.278;2022-07-29T00:11:01;19.60;94.30
6964;DHT22;3522;50.856;7.278;2022-07-29T00:13:28;19.60;94.10
6964;DHT22;3522;50.856;7.278;2022-07-29T00:15:54;19.60;94.10
6964;DHT22;3522;50.856;7.278;2022-07-29T00:18:21;19.60;94.00
6964;DHT22;3522;50.856;7.278;2022-07-29T00:20:47;19.60;93.90
6964;DHT22;3522;50.856;7.278;2022-07-29T00:23:14;19.60;93.80
6964;DHT22;3522;50.856;7.278;2022-07-29T00:25:42;19.60;93.90
6964;DHT22;3522;50.856;7.278;2022-07-29T00:28:08;19.60;93.60
6964;DHT22;3522;50.856;7.278;2022-07-29T00:30:35;19.60;93.50
6964;DHT22;3522;50.856;7.278;2022-07-29T00:33:01;19.60;93.50
6964;DHT22;3522;50.856;7.278;2022-07-29T00:35:28;19.60;93.50
6964;DHT22;3522;50.856;7.278;2022-07-29T00:38:09;19.60;93.60
6964;DHT22;3522;50.856;7.278;2022-07-29T00:40:35;19.60;93.50
6964;DHT22;3522;50.856;7.278;2022-07-29T00:43:03;19.60;93.40
6964;DHT22;3522;50.856;7.278;2022-07-29T00:45:30;19.60;93.40
6964;DHT22;3522;50.856;7.278;2022-07-29T00:47:57;19.60;93.30
6964;DHT22;3522;50.856;7.278;2022-07-29T00:50:23;19.60;93.50
6964;DHT22;3522;50.856;7.278;2022-07-29T00:52:50;19.60;93.50
6964;DHT22;3522;50.856;7.278;2022-07-29T00:55:17;19.50;93.80
6964;DHT22;3522;50.856;7.278;2022-07-29T00:57:44;19.50;94.20
6964;DHT22;3522;50.856;7.278;2022-07-29T01:00:13;19.50;94.30
6964;DHT22;3522;50.856;7.278;2022-07-29T01:02:40;19.50;94.20
6964;DHT22;3522;50.856;7.278;2022-07-29T01:05:07;19.40;94.40
6964;DHT22;3522;50.856;7.278;2022-07-29T01:07:34;19.40;94.90
6964;DHT22;3522;50.856;7.278;2022-07-29T01:10:02;19.40;94.60
6964;DHT22;3522;50.856;7.278;2022-07-29T01:12:29;19.30;94.60
6964;DHT22;3522;50.856;7.278;2022-07-29T01:14:58;19.30;94.80
6964;DHT22;3522;50.856;7.278;2022-07-29T01:17:28;19.30;94.80
6964;DHT22;3522;50.856;7.278;2022-07-29T01:19:56;19.30;95.10
6964;DHT22;3522;50.856;7.278;2022-07-29T01:22:26;19.30;95.00
6964;DHT22;3522;50.856;7.278;2022-07-29T01:27:38;19.20;94.40
6964;DHT22;3522;50.856;7.278;2022-07-29T01:30:08;19.10;94.30
6964;DHT22;3522;50.856;7.278;2022-07-29T01:32:37;19.10;94.10
6964;DHT22;3522;50.856;7.278;2022-07-29T01:35:04;19.10;94.20
6964;DHT22;3522;50.856;7.278;2022-07-29T01:37:33;19.10;94.00
6964;DHT22;3522;50.856;7.278;2022-07-29T01:40:03;19.10;93.90
6964;DHT22;3522;50.856;7.278;2022-07-29T01:42:32;19.10;93.80
6964;DHT22;3522;50.856;7.278;2022-07-29T01:45:00;19.10;93.70
6964;DHT22;3522;50.856;7.278;2022-07-29T01:47:31;19.10;93.60
6964;DHT22;3522;50.856;7.278;2022-07-29T01:49:58;19.10;93.20
6964;DHT22;3522;50.856;7.278;2022-07-29T01:52:27;19.10;93.20
6964;DHT22;3522;50.856;7.278;2022-07-29T01:54:58;19.10;93.10
6964;DHT22;3522;50.856;7.278;2022-07-29T01:57:26;19.10;93.00
6964;DHT22;3522;50.856;7.278;2022-07-29T01:59:54;19.10;92.90
6964;DHT22;3522;50.856;7.278;2022-07-29T02:02:22;19.10;92.70
6964;DHT22;3522;50.856;7.278;2022-07-29T02:04:50;19.10;92.60
6964;DHT22;3522;50.856;7.278;2022-07-29T02:07:19;19.10;92.60
6964;DHT22;3522;50.856;7.278;2022-07-29T02:09:46;19.10;92.60
6964;DHT22;3522;50.856;7.278;2022-07-29T02:12:13;19.10;92.80
6964;DHT22;3522;50.856;7.278;2022-07-29T02:14:42;19.10;92.80
6964;DHT22;3522;50.856;7.278;2022-07-29T02:17:10;19.10;92.80
6964;DHT22;3522;50.856;7.278;2022-07-29T02:19:37;19.10;92.70
6964;DHT22;3522;50.856;7.278;2022-07-29T02:22:05;19.10;92.60
6964;DHT22;3522;50.856;7.278;2022-07-29T02:24:32;19.10;92.80
6964;DHT22;3522;50.856;7.278;2022-07-29T02:26:59;19.00;92.70
6964;DHT22;3522;50.856;7.278;2022-07-29T02:29:27;19.00;92.70
6964;DHT22;3522;50.856;7.278;2022-07-29T02:31:54;18.90;92.80
6964;DHT22;3522;50.856;7.278;2022-07-29T02:34:21;18.90;93.00
6964;DHT22;3522;50.856;7.278;2022-07-29T02:36:48;18.80;92.90
6964;DHT22;3522;50.856;7.278;2022-07-29T02:39:17;18.80;92.90
6964;DHT22;3522;50.856;7.278;2022-07-29T02:41:46;18.80;92.80
6964;DHT22;3522;50.856;7.278;2022-07-29T02:44:13;18.70;92.80
6964;DHT22;3522;50.856;7.278;2022-07-29T02:46:42;18.70;93.00
6964;DHT22;3522;50.856;7.278;2022-07-29T02:49:12;18.60;92.90
6964;DHT22;3522;50.856;7.278;2022-07-29T02:51:40;18.60;92.90
6964;DHT22;3522;50.856;7.278;2022-07-29T02:54:08;18.60;93.00
6964;DHT22;3522;50.856;7.278;2022-07-29T02:56:37;18.50;92.90
6964;DHT22;3522;50.856;7.278;2022-07-29T02:59:06;18.50;93.00
6964;DHT22;3522;50.856;7.278;2022-07-29T03:01:34;18.50;92.90
6964;DHT22;3522;50.856;7.278;2022-07-29T03:04:01;18.50;93.10
6964;DHT22;3522;50.856;7.278;2022-07-29T03:06:29;18.50;93.20
6964;DHT22;3522;50.856;7.278;2022-07-29T03:08:56;18.50;93.10
6964;DHT22;3522;50.856;7.278;2022-07-29T03:11:23;18.50;93.20
6964;DHT22;3522;50.856;7.278;2022-07-29T03:13:52;18.50;93.30
6964;DHT22;3522;50.856;7.278;2022-07-29T03:16:19;18.60;93.30
6964;DHT22;3522;50.856;7.278;2022-07-29T03:18:46;18.60;93.60
6964;DHT22;3522;50.856;7.278;2022-07-29T03:21:13;18.60;93.60
6964;DHT22;3522;50.856;7.278;2022-07-29T03:23:43;18.60;94.10
6964;DHT22;3522;50.856;7.278;2022-07-29T03:26:10;18.60;94.60
6964;DHT22;3522;50.856;7.278;2022-07-29T03:28:36;18.50;95.20
6964;DHT22;3522;50.856;7.278;2022-07-29T03:31:04;18.50;95.80
6964;DHT22;3522;50.856;7.278;2022-07-29T03:33:31;18.40;96.10
6964;DHT22;3522;50.856;7.278;2022-07-29T03:35:58;18.40;96.40
6964;DHT22;3522;50.856;7.278;2022-07-29T03:38:25;18.30;96.30
6964;DHT22;3522;50.856;7.278;2022-07-29T03:40:56;18.30;96.30
6964;DHT22;3522;50.856;7.278;2022-07-29T03:43:26;18.30;96.70
6964;DHT22;3522;50.856;7.278;2022-07-29T03:45:56;18.10;97.90
6964;DHT22;3522;50.856;7.278;2022-07-29T03:48:24;17.90;99.80
6964;DHT22;3522;50.856;7.278;2022-07-29T03:50:52;17.70;99.90
6964;DHT22;3522;50.856;7.278;2022-07-29T03:53:18;17.50;99.90
6964;DHT22;3522;50.856;7.278;2022-07-29T03:55:46;17.40;99.90
6964;DHT22;3522;50.856;7.278;2022-07-29T03:58:14;17.40;99.90
6964;DHT22;3522;50.856;7.278;2022-07-29T04:00:41;17.30;99.90
6964;DHT22;3522;50.856;7.278;2022-07-29T04:03:08;17.20;99.90
6964;DHT22;3522;50.856;7.278;2022-07-29T04:05:36;17.20;99.90
6964;DHT22;3522;50.856;7.278;2022-07-29T04:08:02;17.20;99.90
6964;DHT22;3522;50.856;7.278;2022-07-29T04:10:29;17.20;99.90
6964;DHT22;3522;50.856;7.278;2022-07-29T04:12:56;17.20;99.90
6964;DHT22;3522;50.856;7.278;2022-07-29T04:15:22;17.30;99.90
6964;DHT22;3522;50.856;7.278;2022-07-29T04:17:49;17.30;99.90
6964;DHT22;3522;50.856;7.278;2022-07-29T04:20:15;17.30;99.90
6964;DHT22;3522;50.856;7.278;2022-07-29T04:22:43;17.30;99.90
6964;DHT22;3522;50.856;7.278;2022-07-29T04:25:10;17.20;99.90
6964;DHT22;3522;50.856;7.278;2022-07-29T04:27:37;17.30;99.90
6964;DHT22;3522;50.856;7.278;2022-07-29T04:30:23;17.20;99.90
6964;DHT22;3522;50.856;7.278;2022-07-29T04:32:50;17.30;99.90
6964;DHT22;3522;50.856;7.278;2022-07-29T04:35:17;17.30;99.90
6964;DHT22;3522;50.856;7.278;2022-07-29T04:37:45;17.30;99.90
6964;DHT22;3522;50.856;7.278;2022-07-29T04:40:11;17.40;99.90
6964;DHT22;3522;50.856;7.278;2022-07-29T04:42:38;17.50;99.90
6964;DHT22;3522;50.856;7.278;2022-07-29T04:45:05;17.50;99.90
6964;DHT22;3522;50.856;7.278;2022-07-29T04:47:32;17.60;99.90
6964;DHT22;3522;50.856;7.278;2022-07-29T04:49:58;17.70;99.90
6964;DHT22;3522;50.856;7.278;2022-07-29T04:52:25;17.70;99.90
6964;DHT22;3522;50.856;7.278;2022-07-29T04:54:53;17.80;99.90
6964;DHT22;3522;50.856;7.278;2022-07-29T04:57:19;17.80;99.90
6964;DHT22;3522;50.856;7.278;2022-07-29T04:59:46;17.90;99.90
6964;DHT22;3522;50.856;7.278;2022-07-29T05:02:12;18.00;99.90
6964;DHT22;3522;50.856;7.278;2022-07-29T05:04:39;18.10;99.90
6964;DHT22;3522;50.856;7.278;2022-07-29T05:07:05;18.20;99.90
6964;DHT22;3522;50.856;7.278;2022-07-29T05:09:32;18.30;99.90
6964;DHT22;3522;50.856;7.278;2022-07-29T05:12:00;18.30;99.90
6964;DHT22;3522;50.856;7.278;2022-07-29T05:14:27;18.40;99.90
6964;DHT22;3522;50.856;7.278;2022-07-29T05:16:53;18.50;99.90
6964;DHT22;3522;50.856;7.278;2022-07-29T05:19:21;18.50;99.90
6964;DHT22;3522;50.856;7.278;2022-07-29T05:21:48;18.50;99.90
6964;DHT22;3522;50.856;7.278;2022-07-29T05:24:15;18.60;99.90
6964;DHT22;3522;50.856;7.278;2022-07-29T05:26:41;18.60;99.90
6964;DHT22;3522;50.856;7.278;2022-07-29T05:29:09;18.70;99.90
6964;DHT22;3522;50.856;7.278;2022-07-29T05:31:36;18.70;99.90
6964;DHT22;3522;50.856;7.278;2022-07-29T05:34:02;18.80;99.90
6964;DHT22;3522;50.856;7.278;2022-07-29T05:36:29;18.70;99.90
6964;DHT22;3522;50.856;7.278;2022-07-29T05:38:56;18.60;99.90
6964;DHT22;3522;50.856;7.278;2022-07-29T05:41:22;18.60;99.90
6964;DHT22;3522;50.856;7.278;2022-07-29T05:43:49;18.60;99.90
6964;DHT22;3522;50.856;7.278;2022-07-29T05:46:17;18.50;99.90
6964;DHT22;3522;50.856;7.278;2022-07-29T05:48:44;18.50;99.90
6964;DHT22;3522;50.856;7.278;2022-07-29T05:51:11;18.50;99.90
6964;DHT22;3522;50.856;7.278;2022-07-29T05:53:37;18.60;99.90
6964;DHT22;3522;50.856;7.278;2022-07-29T05:56:04;18.70;99.90
6964;DHT22;3522;50.856;7.278;2022-07-29T05:58:32;19.00;99.90
6964;DHT22;3522;50.856;7.278;2022-07-29T06:00:59;19.20;99.90
6964;DHT22;3522;50.856;7.278;2022-07-29T06:03:27;19.40;99.90
6964;DHT22;3522;50.856;7.278;2022-07-29T06:05:54;19.70;99.90
6964;DHT22;3522;50.856;7.278;2022-07-29T06:08:20;20.00;99.90
6964;DHT22;3522;50.856;7.278;2022-07-29T06:10:47;20.40;99.90
6964;DHT22;3522;50.856;7.278;2022-07-29T06:13:13;20.50;99.90
6964;DHT22;3522;50.856;7.278;2022-07-29T06:15:41;20.60;99.90
6964;DHT22;3522;50.856;7.278;2022-07-29T06:18:07;20.60;99.90
6964;DHT22;3522;50.856;7.278;2022-07-29T06:20:36;20.60;99.90
6964;DHT22;3522;50.856;7.278;2022-07-29T06:23:03;20.60;99.90
6964;DHT22;3522;50.856;7.278;2022-07-29T06:25:30;20.60;99.90
6964;DHT22;3522;50.856;7.278;2022-07-29T06:27:57;20.50;99.90
6964;DHT22;3522;50.856;7.278;2022-07-29T06:30:24;20.50;99.90
6964;DHT22;3522;50.856;7.278;2022-07-29T06:32:50;20.40;99.90
6964;DHT22;3522;50.856;7.278;2022-07-29T06:35:17;20.40;99.90
6964;DHT22;3522;50.856;7.278;2022-07-29T06:37:45;20.40;99.90
6964;DHT22;3522;50.856;7.278;2022-07-29T06:40:11;20.30;99.90
6964;DHT22;3522;50.856;7.278;2022-07-29T06:42:56;20.20;99.90
6964;DHT22;3522;50.856;7.278;2022-07-29T06:45:22;20.10;99.90
6964;DHT22;3522;50.856;7.278;2022-07-29T06:47:49;20.10;99.90
6964;DHT22;3522;50.856;7.278;2022-07-29T06:50:16;20.20;99.90
6964;DHT22;3522;50.856;7.278;2022-07-29T06:52:42;20.20;99.90
6964;DHT22;3522;50.856;7.278;2022-07-29T06:55:10;20.40;99.90
6964;DHT22;3522;50.856;7.278;2022-07-29T06:57:37;20.70;99.90
6964;DHT22;3522;50.856;7.278;2022-07-29T07:00:04;21.10;99.90
6964;DHT22;3522;50.856;7.278;2022-07-29T07:02:31;21.50;99.90
6964;DHT22;3522;50.856;7.278;2022-07-29T07:04:57;21.70;99.90
6964;DHT22;3522;50.856;7.278;2022-07-29T07:07:24;21.90;99.90
6964;DHT22;3522;50.856;7.278;2022-07-29T07:09:51;22.10;99.90
6964;DHT22;3522;50.856;7.278;2022-07-29T07:12:19;22.40;99.90
6964;DHT22;3522;50.856;7.278;2022-07-29T07:14:45;22.70;99.90
6964;DHT22;3522;50.856;7.278;2022-07-29T07:17:12;23.10;99.90
6964;DHT22;3522;50.856;7.278;2022-07-29T07:19:38;23.30;99.90
6964;DHT22;3522;50.856;7.278;2022-07-29T07:22:05;23.50;99.90
6964;DHT22;3522;50.856;7.278;2022-07-29T07:24:31;23.80;99.10
6964;DHT22;3522;50.856;7.278;2022-07-29T07:26:58;23.90;98.80
6964;DHT22;3522;50.856;7.278;2022-07-29T07:29:26;24.00;99.60
6964;DHT22;3522;50.856;7.278;2022-07-29T07:31:52;24.30;98.60
6964;DHT22;3522;50.856;7.278;2022-07-29T07:34:19;24.40;99.20
6964;DHT22;3522;50.856;7.278;2022-07-29T07:36:46;24.60;98.50
6964;DHT22;3522;50.856;7.278;2022-07-29T07:39:12;24.90;98.50
6964;DHT22;3522;50.856;7.278;2022-07-29T07:41:39;24.90;97.00
6964;DHT22;3522;50.856;7.278;2022-07-29T07:44:05;25.00;96.40
6964;DHT22;3522;50.856;7.278;2022-07-29T07:46:33;24.90;94.70
6964;DHT22;3522;50.856;7.278;2022-07-29T07:49:00;24.70;95.90
6964;DHT22;3522;50.856;7.278;2022-07-29T07:51:26;24.80;93.50
6964;DHT22;3522;50.856;7.278;2022-07-29T07:53:53;25.00;91.70
6964;DHT22;3522;50.856;7.278;2022-07-29T07:56:19;25.20;91.50
6964;DHT22;3522;50.856;7.278;2022-07-29T07:58:46;25.20;92.70
6964;DHT22;3522;50.856;7.278;2022-07-29T08:01:13;25.40;91.80
6964;DHT22;3522;50.856;7.278;2022-07-29T08:03:40;25.40;91.60
6964;DHT22;3522;50.856;7.278;2022-07-29T08:06:07;25.20;93.40
6964;DHT22;3522;50.856;7.278;2022-07-29T08:08:34;25.20;92.50
6964;DHT22;3522;50.856;7.278;2022-07-29T08:11:00;25.20;93.90
6964;DHT22;3522;50.856;7.278;2022-07-29T08:13:27;25.00;92.90
6964;DHT22;3522;50.856;7.278;2022-07-29T08:15:55;24.70;90.30
6964;DHT22;3522;50.856;7.278;2022-07-29T08:18:26;24.40;88.40
6964;DHT22;3522;50.856;7.278;2022-07-29T08:20:54;24.10;91.30
6964;DHT22;3522;50.856;7.278;2022-07-29T08:23:21;23.90;91.30
6964;DHT22;3522;50.856;7.278;2022-07-29T08:25:48;23.80;92.60
6964;DHT22;3522;50.856;7.278;2022-07-29T08:28:14;23.70;91.90
6964;DHT22;3522;50.856;7.278;2022-07-29T08:30:41;23.60;91.40
6964;DHT22;3522;50.856;7.278;2022-07-29T08:33:08;23.50;92.30
6964;DHT22;3522;50.856;7.278;2022-07-29T08:35:34;23.50;92.60
6964;DHT22;3522;50.856;7.278;2022-07-29T08:38:02;23.60;93.10
6964;DHT22;3522;50.856;7.278;2022-07-29T08:40:29;23.70;93.40
6964;DHT22;3522;50.856;7.278;2022-07-29T08:42:56;23.90;94.10
6964;DHT22;3522;50.856;7.278;2022-07-29T08:45:22;24.20;93.40
6964;DHT22;3522;50.856;7.278;2022-07-29T08:47:49;24.40;94.20
6964;DHT22;3522;50.856;7.278;2022-07-29T08:50:16;24.70;92.90
6964;DHT22;3522;50.856;7.278;2022-07-29T08:52:42;24.90;91.30
6964;DHT22;3522;50.856;7.278;2022-07-29T08:55:10;24.90;91.60
6964;DHT22;3522;50.856;7.278;2022-07-29T08:57:38;24.90;90.70
6964;DHT22;3522;50.856;7.278;2022-07-29T09:00:05;24.90;90.80
6964;DHT22;3522;50.856;7.278;2022-07-29T09:02:35;25.10;89.80
6964;DHT22;3522;50.856;7.278;2022-07-29T09:05:02;25.10;91.20
6964;DHT22;3522;50.856;7.278;2022-07-29T09:07:28;25.20;87.20
6964;DHT22;3522;50.856;7.278;2022-07-29T09:09:55;25.30;90.10
6964;DHT22;3522;50.856;7.278;2022-07-29T09:12:23;25.40;90.10
6964;DHT22;3522;50.856;7.278;2022-07-29T09:14:50;25.50;90.20
6964;DHT22;3522;50.856;7.278;2022-07-29T09:17:17;25.60;89.80
6964;DHT22;3522;50.856;7.278;2022-07-29T09:19:45;25.70;90.80
6964;DHT22;3522;50.856;7.278;2022-07-29T09:22:11;25.40;89.80
6964;DHT22;3522;50.856;7.278;2022-07-29T09:24:42;25.40;89.60
6964;DHT22;3522;50.856;7.278;2022-07-29T09:27:10;25.70;92.20
6964;DHT22;3522;50.856;7.278;2022-07-29T09:29:38;26.00;90.10
6964;DHT22;3522;50.856;7.278;2022-07-29T09:32:06;26.30;89.10
6964;DHT22;3522;50.856;7.278;2022-07-29T09:34:33;26.80;84.00
6964;DHT22;3522;50.856;7.278;2022-07-29T09:37:00;26.90;81.80
6964;DHT22;3522;50.856;7.278;2022-07-29T09:39:27;27.20;85.30
6964;DHT22;3522;50.856;7.278;2022-07-29T09:41:55;27.50;86.70
6964;DHT22;3522;50.856;7.278;2022-07-29T09:44:22;27.80;84.70
6964;DHT22;3522;50.856;7.278;2022-07-29T09:47:00;28.10;84.40
6964;DHT22;3522;50.856;7.278;2022-07-29T09:49:31;28.30;84.60
6964;DHT22;3522;50.856;7.278;2022-07-29T09:52:03;28.30;78.20
6964;DHT22;3522;50.856;7.278;2022-07-29T09:54:30;28.60;75.60
6964;DHT22;3522;50.856;7.278;2022-07-29T09:57:02;29.00;77.70
6964;DHT22;3522;50.856;7.278;2022-07-29T09:59:29;29.10;72.80
6964;DHT22;3522;50.856;7.278;2022-07-29T10:01:55;29.30;72.70
6964;DHT22;3522;50.856;7.278;2022-07-29T10:04:23;29.50;71.20
6964;DHT22;3522;50.856;7.278;2022-07-29T10:06:56;29.60;75.60
6964;DHT22;3522;50.856;7.278;2022-07-29T10:09:23;29.30;78.20
6964;DHT22;3522;50.856;7.278;2022-07-29T10:12:02;29.20;80.30
6964;DHT22;3522;50.856;7.278;2022-07-29T10:14:29;29.00;73.20
6964;DHT22;3522;50.856;7.278;2022-07-29T10:16:56;28.70;74.90
6964;DHT22;3522;50.856;7.278;2022-07-29T10:19:24;28.40;79.60
6964;DHT22;3522;50.856;7.278;2022-07-29T10:21:51;28.20;76.40
6964;DHT22;3522;50.856;7.278;2022-07-29T10:24:18;27.80;79.60
6964;DHT22;3522;50.856;7.278;2022-07-29T10:26:44;27.70;78.90
6964;DHT22;3522;50.856;7.278;2022-07-29T10:29:12;27.70;83.20
6964;DHT22;3522;50.856;7.278;2022-07-29T10:31:44;27.80;80.00
6964;DHT22;3522;50.856;7.278;2022-07-29T10:34:16;28.00;76.00
6964;DHT22;3522;50.856;7.278;2022-07-29T10:36:49;28.10;75.30
6964;DHT22;3522;50.856;7.278;2022-07-29T10:39:24;28.20;75.80
6964;DHT22;3522;50.856;7.278;2022-07-29T10:41:56;28.20;77.50
6964;DHT22;3522;50.856;7.278;2022-07-29T10:44:25;28.10;76.60
6964;DHT22;3522;50.856;7.278;2022-07-29T10:46:52;27.90;82.70
6964;DHT22;3522;50.856;7.278;2022-07-29T10:49:19;27.70;82.90
6964;DHT22;3522;50.856;7.278;2022-07-29T10:51:58;27.50;80.30
6964;DHT22;3522;50.856;7.278;2022-07-29T10:57:13;27.50;80.70
6964;DHT22;3522;50.856;7.278;2022-07-29T10:59:40;27.70;81.00
6964;DHT22;3522;50.856;7.278;2022-07-29T11:04:58;27.60;80.70
6964;DHT22;3522;50.856;7.278;2022-07-29T11:07:26;27.50;73.00
6964;DHT22;3522;50.856;7.278;2022-07-29T11:12:46;27.20;74.70
6964;DHT22;3522;50.856;7.278;2022-07-29T11:15:13;27.30;76.60
6964;DHT22;3522;50.856;7.278;2022-07-29T11:20:36;27.40;82.00
6964;DHT22;3522;50.856;7.278;2022-07-29T11:23:24;27.50;86.00
6964;DHT22;3522;50.856;7.278;2022-07-29T11:28:38;27.50;90.70
6964;DHT22;3522;50.856;7.278;2022-07-29T11:31:06;27.50;90.30
6964;DHT22;3522;50.856;7.278;2022-07-29T11:33:34;27.50;90.30
6964;DHT22;3522;50.856;7.278;2022-07-29T11:36:08;27.70;88.30
6964;DHT22;3522;50.856;7.278;2022-07-29T11:38:37;27.60;90.90
6964;DHT22;3522;50.856;7.278;2022-07-29T11:41:19;27.90;91.50
6964;DHT22;3522;50.856;7.278;2022-07-29T11:43:45;28.10;89.40
6964;DHT22;3522;50.856;7.278;2022-07-29T11:46:12;28.60;91.40
6964;DHT22;3522;50.856;7.278;2022-07-29T11:48:41;28.80;90.30
6964;DHT22;3522;50.856;7.278;2022-07-29T11:51:09;29.10;85.00
6964;DHT22;3522;50.856;7.278;2022-07-29T11:53:37;29.40;83.30
6964;DHT22;3522;50.856;7.278;2022-07-29T11:56:03;29.30;84.90
6964;DHT22;3522;50.856;7.278;2022-07-29T11:58:30;29.40;86.20
6964;DHT22;3522;50.856;7.278;2022-07-29T12:00:57;29.50;85.80
6964;DHT22;3522;50.856;7.278;2022-07-29T12:03:24;29.50;86.90
6964;DHT22;3522;50.856;7.278;2022-07-29T12:05:51;29.70;85.00
6964;DHT22;3522;50.856;7.278;2022-07-29T12:08:18;29.50;85.10
6964;DHT22;3522;50.856;7.278;2022-07-29T12:10:48;29.30;84.70
6964;DHT22;3522;50.856;7.278;2022-07-29T12:13:16;29.20;87.20
6964;DHT22;3522;50.856;7.278;2022-07-29T12:15:51;29.20;85.80
6964;DHT22;3522;50.856;7.278;2022-07-29T12:18:18;29.30;85.80
6964;DHT22;3522;50.856;7.278;2022-07-29T12:20:45;29.20;85.20
6964;DHT22;3522;50.856;7.278;2022-07-29T12:23:12;29.40;83.60
6964;DHT22;3522;50.856;7.278;2022-07-29T12:25:40;29.30;84.30
6964;DHT22;3522;50.856;7.278;2022-07-29T12:28:08;29.60;83.10
6964;DHT22;3522;50.856;7.278;2022-07-29T12:30:37;29.60;82.40
6964;DHT22;3522;50.856;7.278;2022-07-29T12:33:11;29.50;83.50
6964;DHT22;3522;50.856;7.278;2022-07-29T12:35:38;29.20;80.70
6964;DHT22;3522;50.856;7.278;2022-07-29T12:38:05;29.20;83.50
6964;DHT22;3522;50.856;7.278;2022-07-29T12:40:31;29.10;83.80
6964;DHT22;3522;50.856;7.278;2022-07-29T12:43:09;29.10;87.30
6964;DHT22;3522;50.856;7.278;2022-07-29T12:45:38;29.20;84.80
6964;DHT22;3522;50.856;7.278;2022-07-29T12:48:05;29.00;82.90
6964;DHT22;3522;50.856;7.278;2022-07-29T12:50:33;28.70;85.00
6964;DHT22;3522;50.856;7.278;2022-07-29T12:53:10;28.60;82.90
6964;DHT22;3522;50.856;7.278;2022-07-29T12:55:37;28.40;85.20
6964;DHT22;3522;50.856;7.278;2022-07-29T12:58:04;28.20;87.30
6964;DHT22;3522;50.856;7.278;2022-07-29T13:00:32;27.80;88.30
6964;DHT22;3522;50.856;7.278;2022-07-29T13:02:59;27.50;87.20
6964;DHT22;3522;50.856;7.278;2022-07-29T13:05:38;27.20;87.30
6964;DHT22;3522;50.856;7.278;2022-07-29T13:08:11;26.90;89.70
6964;DHT22;3522;50.856;7.278;2022-07-29T13:10:38;26.70;90.70
6964;DHT22;3522;50.856;7.278;2022-07-29T13:13:06;26.60;89.90
6964;DHT22;3522;50.856;7.278;2022-07-29T13:15:36;26.50;91.80
6964;DHT22;3522;50.856;7.278;2022-07-29T13:18:03;26.50;90.90
6964;DHT22;3522;50.856;7.278;2022-07-29T13:20:30;26.70;91.20
6964;DHT22;3522;50.856;7.278;2022-07-29T13:22:57;26.70;90.80
6964;DHT22;3522;50.856;7.278;2022-07-29T13:25:25;26.80;90.20
6964;DHT22;3522;50.856;7.278;2022-07-29T13:27:52;26.70;91.40
6964;DHT22;3522;50.856;7.278;2022-07-29T13:30:20;26.70;90.70
6964;DHT22;3522;50.856;7.278;2022-07-29T13:32:48;26.70;90.90
6964;DHT22;3522;50.856;7.278;2022-07-29T13:35:14;26.70;90.80
6964;DHT22;3522;50.856;7.278;2022-07-29T13:37:41;26.70;90.70
6964;DHT22;3522;50.856;7.278;2022-07-29T13:40:08;26.60;90.50
6964;DHT22;3522;50.856;7.278;2022-07-29T13:42:35;26.50;91.20
6964;DHT22;3522;50.856;7.278;2022-07-29T13:45:02;26.60;90.50
6964;DHT22;3522;50.856;7.278;2022-07-29T13:47:29;26.50;90.50
6964;DHT22;3522;50.856;7.278;2022-07-29T13:49:57;26.50;89.10
6964;DHT22;3522;50.856;7.278;2022-07-29T13:52:24;26.60;91.20
6964;DHT22;3522;50.856;7.278;2022-07-29T13:54:50;26.60;91.60
6964;DHT22;3522;50.856;7.278;2022-07-29T13:57:17;26.80;92.20
6964;DHT22;3522;50.856;7.278;2022-07-29T13:59:43;27.00;91.30
6964;DHT22;3522;50.856;7.278;2022-07-29T14:02:10;27.20;90.90
6964;DHT22;3522;50.856;7.278;2022-07-29T14:04:37;27.30;91.50
6964;DHT22;3522;50.856;7.278;2022-07-29T14:07:06;27.40;90.70
6964;DHT22;3522;50.856;7.278;2022-07-29T14:09:32;27.50;90.00
6964;DHT22;3522;50.856;7.278;2022-07-29T14:11:59;27.60;90.20
6964;DHT22;3522;50.856;7.278;2022-07-29T14:14:27;27.60;87.40
6964;DHT22;3522;50.856;7.278;2022-07-29T14:16:54;27.70;89.00
6964;DHT22;3522;50.856;7.278;2022-07-29T14:19:20;27.60;85.50
6964;DHT22;3522;50.856;7.278;2022-07-29T14:21:47;27.50;83.50
6964;DHT22;3522;50.856;7.278;2022-07-29T14:24:15;27.50;86.70
6964;DHT22;3522;50.856;7.278;2022-07-29T14:26:41;27.50;87.20
6964;DHT22;3522;50.856;7.278;2022-07-29T14:29:08;27.30;83.90
6964;DHT22;3522;50.856;7.278;2022-07-29T14:31:34;27.20;84.30
6964;DHT22;3522;50.856;7.278;2022-07-29T14:34:01;27.00;87.80
6964;DHT22;3522;50.856;7.278;2022-07-29T14:36:27;26.90;88.30
6964;DHT22;3522;50.856;7.278;2022-07-29T14:38:54;26.90;90.00
6964;DHT22;3522;50.856;7.278;2022-07-29T14:41:22;27.10;89.60
6964;DHT22;3522;50.856;7.278;2022-07-29T14:43:48;27.40;89.40
6964;DHT22;3522;50.856;7.278;2022-07-29T14:46:15;27.50;89.80
6964;DHT22;3522;50.856;7.278;2022-07-29T14:48:41;27.50;86.50
6964;DHT22;3522;50.856;7.278;2022-07-29T14:51:08;27.60;87.00
6964;DHT22;3522;50.856;7.278;2022-07-29T14:53:35;27.70;89.90
6964;DHT22;3522;50.856;7.278;2022-07-29T14:56:02;27.50;86.30
6964;DHT22;3522;50.856;7.278;2022-07-29T14:58:30;27.20;85.70
6964;DHT22;3522;50.856;7.278;2022-07-29T15:00:56;26.90;88.40
6964;DHT22;3522;50.856;7.278;2022-07-29T15:03:23;26.70;88.90
6964;DHT22;3522;50.856;7.278;2022-07-29T15:05:49;26.50;90.30
6964;DHT22;3522;50.856;7.278;2022-07-29T15:08:16;26.40;90.00
6964;DHT22;3522;50.856;7.278;2022-07-29T15:10:43;26.20;90.80
6964;DHT22;3522;50.856;7.278;2022-07-29T15:13:09;26.10;90.80
6964;DHT22;3522;50.856;7.278;2022-07-29T15:15:37;26.00;90.70
6964;DHT22;3522;50.856;7.278;2022-07-29T15:18:04;26.00;90.60
6964;DHT22;3522;50.856;7.278;2022-07-29T15:20:31;26.20;91.80
6964;DHT22;3522;50.856;7.278;2022-07-29T15:22:57;26.40;90.60
6964;DHT22;3522;50.856;7.278;2022-07-29T15:25:24;26.50;90.20
6964;DHT22;3522;50.856;7.278;2022-07-29T15:27:51;26.50;90.50
6964;DHT22;3522;50.856;7.278;2022-07-29T15:30:17;26.30;88.30
6964;DHT22;3522;50.856;7.278;2022-07-29T15:32:45;26.30;91.00
6964;DHT22;3522;50.856;7.278;2022-07-29T15:35:12;26.40;89.30
6964;DHT22;3522;50.856;7.278;2022-07-29T15:37:39;26.40;87.80
6964;DHT22;3522;50.856;7.278;2022-07-29T15:40:06;26.40;89.90
6964;DHT22;3522;50.856;7.278;2022-07-29T15:42:33;26.40;89.10
6964;DHT22;3522;50.856;7.278;2022-07-29T15:45:01;26.30;89.50
6964;DHT22;3522;50.856;7.278;2022-07-29T15:47:28;26.30;89.30
6964;DHT22;3522;50.856;7.278;2022-07-29T15:49:56;26.30;89.50
6964;DHT22;3522;50.856;7.278;2022-07-29T15:52:22;26.40;90.80
6964;DHT22;3522;50.856;7.278;2022-07-29T15:54:49;26.50;90.10
6964;DHT22;3522;50.856;7.278;2022-07-29T15:57:15;26.40;90.40
6964;DHT22;3522;50.856;7.278;2022-07-29T15:59:42;26.30;90.40
6964;DHT22;3522;50.856;7.278;2022-07-29T16:02:09;26.30;91.60
6964;DHT22;3522;50.856;7.278;2022-07-29T16:04:35;26.20;90.80
6964;DHT22;3522;50.856;7.278;2022-07-29T16:07:03;26.10;90.00
6964;DHT22;3522;50.856;7.278;2022-07-29T16:09:30;26.10;91.10
6964;DHT22;3522;50.856;7.278;2022-07-29T16:11:56;26.00;90.00
6964;DHT22;3522;50.856;7.278;2022-07-29T16:14:23;25.90;90.70
6964;DHT22;3522;50.856;7.278;2022-07-29T16:16:50;25.90;90.30
6964;DHT22;3522;50.856;7.278;2022-07-29T16:19:17;25.80;90.10
6964;DHT22;3522;50.856;7.278;2022-07-29T16:21:43;25.50;90.20